createdAt,value
2018-03-20T00:00:06.579Z,101079.25
2018-03-20T00:02:35.098Z,101078.52
2018-03-20T00:05:04.368Z,101072.64
2018-03-20T00:07:32.858Z,101076.95
2018-03-20T00:10:01.375Z,101082.91
2018-03-20T00:12:29.805Z,101085.34
2018-03-20T00:14:58.704Z,101085.88
2018-03-20T00:17:27.256Z,101085.98
2018-03-20T00:19:56.125Z,101082.81
2018-03-20T00:22:25.544Z,101075.23
2018-03-20T00:24:54.838Z,101081.88
2018-03-20T00:27:24.298Z,101081.69
2018-03-20T00:29:52.884Z,101086.42
2018-03-20T00:32:22.858Z,101083.92
2018-03-20T00:34:51.422Z,101081.48
2018-03-20T00:37:21.038Z,101089.00
2018-03-20T00:39:50.217Z,101085.10
2018-03-20T00:42:18.623Z,101088.80
2018-03-20T00:44:47.077Z,101099.50
2018-03-20T00:47:15.467Z,101093.78
2018-03-20T00:49:44.627Z,101095.20
2018-03-20T00:52:13.080Z,101097.08
2018-03-20T00:54:41.467Z,101097.78
2018-03-20T00:57:10.047Z,101099.50
2018-03-20T00:59:38.439Z,101100.47
2018-03-20T01:02:06.871Z,101106.02
2018-03-20T01:04:36.075Z,101101.34
2018-03-20T01:07:05.269Z,101106.56
2018-03-20T01:09:34.620Z,101102.92
2018-03-20T01:12:02.999Z,101100.96
2018-03-20T01:14:31.425Z,101104.16
2018-03-20T01:16:59.952Z,101104.52
2018-03-20T01:19:29.099Z,101104.86
2018-03-20T01:21:57.481Z,101100.73
2018-03-20T01:24:25.912Z,101101.41
2018-03-20T01:26:54.359Z,101104.64
2018-03-20T01:29:23.524Z,101104.61
2018-03-20T01:31:51.934Z,101105.27
2018-03-20T01:34:21.196Z,101109.28
2018-03-20T01:36:49.595Z,101111.39
2018-03-20T01:39:18.134Z,101108.64
2018-03-20T01:41:46.523Z,101109.02
2018-03-20T01:44:14.967Z,101103.23
2018-03-20T01:46:44.219Z,101107.09
2018-03-20T01:49:12.611Z,101098.17
2018-03-20T01:51:41.048Z,101104.39
2018-03-20T01:54:09.454Z,101107.80
2018-03-20T01:56:38.124Z,101110.61
2018-03-20T01:59:06.515Z,101107.55
2018-03-20T02:01:34.936Z,101105.52
2018-03-20T02:04:04.272Z,101106.41
2018-03-20T02:06:32.766Z,101106.28
2018-03-20T02:09:01.153Z,101110.92
2018-03-20T02:11:29.593Z,101114.22
2018-03-20T02:13:58.770Z,101108.95
2018-03-20T02:16:27.933Z,101112.11
2018-03-20T02:18:56.379Z,101105.78
2018-03-20T02:21:25.563Z,101106.47
2018-03-20T02:23:54.715Z,101111.15
2018-03-20T02:26:23.104Z,101112.38
2018-03-20T02:28:51.508Z,101113.90
2018-03-20T02:31:19.986Z,101111.29
2018-03-20T02:33:49.157Z,101107.63
2018-03-20T02:36:17.670Z,101113.96
2018-03-20T02:38:46.866Z,101113.75
2018-03-20T02:41:15.303Z,101110.03
2018-03-20T02:43:43.716Z,101109.16
2018-03-20T02:46:12.091Z,101108.37
2018-03-20T02:48:40.495Z,101100.84
2018-03-20T02:51:08.966Z,101097.11
2018-03-20T02:53:37.362Z,101102.99
2018-03-20T02:56:06.684Z,101113.00
2018-03-20T02:58:35.135Z,101108.58
2018-03-20T03:01:04.316Z,101111.37
2018-03-20T03:03:32.724Z,101116.55
2018-03-20T03:06:01.929Z,101112.52
2018-03-20T03:08:31.083Z,101112.66
2018-03-20T03:10:59.479Z,101112.47
2018-03-20T03:13:28.657Z,101110.95
2018-03-20T03:15:57.077Z,101104.78
2018-03-20T03:18:26.260Z,101099.84
2018-03-20T03:20:54.799Z,101094.89
2018-03-20T03:23:23.183Z,101096.86
2018-03-20T03:25:51.659Z,101096.92
2018-03-20T03:28:20.046Z,101091.52
2018-03-20T03:30:48.473Z,101096.06
2018-03-20T03:33:16.983Z,101094.53
2018-03-20T03:35:45.407Z,101086.98
2018-03-20T03:38:14.544Z,101085.80
2018-03-20T03:40:43.699Z,101075.66
2018-03-20T03:43:12.128Z,101067.81
2018-03-20T03:45:41.285Z,101048.72
2018-03-20T03:48:09.689Z,101057.35
2018-03-20T03:50:38.871Z,101083.60
2018-03-20T03:53:07.397Z,101093.35
2018-03-20T03:55:36.533Z,101091.38
2018-03-20T03:58:05.031Z,101111.21
2018-03-20T04:00:33.399Z,101105.16
2018-03-20T04:03:01.792Z,101107.07
2018-03-20T04:05:30.356Z,101103.60
2018-03-20T04:07:58.739Z,101108.63
2018-03-20T04:10:27.114Z,101100.97
2018-03-20T04:12:55.491Z,101107.11
2018-03-20T04:15:23.882Z,101107.90
2018-03-20T04:17:52.436Z,101107.90
2018-03-20T04:20:20.840Z,101096.92
2018-03-20T04:22:49.331Z,101099.38
2018-03-20T04:25:17.822Z,101094.20
2018-03-20T04:27:46.431Z,101091.74
2018-03-20T04:30:14.809Z,101100.27
2018-03-20T04:32:43.190Z,101093.85
2018-03-20T04:35:12.336Z,101099.91
2018-03-20T04:37:40.810Z,101091.53
2018-03-20T04:40:10.623Z,101087.75
2018-03-20T04:42:39.008Z,101080.80
2018-03-20T04:45:07.399Z,101081.30
2018-03-20T04:47:35.966Z,101083.71
2018-03-20T04:50:04.348Z,101082.17
2018-03-20T04:52:32.743Z,101091.97
2018-03-20T04:55:01.178Z,101087.22
2018-03-20T04:57:30.376Z,101088.50
2018-03-20T04:59:59.528Z,101090.89
2018-03-20T05:02:28.004Z,101085.01
2018-03-20T05:04:56.409Z,101087.60
2018-03-20T05:07:24.848Z,101091.22
2018-03-20T05:09:53.309Z,101094.44
2018-03-20T05:12:21.801Z,101092.00
2018-03-20T05:14:50.216Z,101087.89
2018-03-20T05:17:18.610Z,101087.71
2018-03-20T05:19:52.466Z,101094.86
2018-03-20T05:22:26.371Z,101090.24
2018-03-20T05:24:54.765Z,101096.38
2018-03-20T05:27:23.164Z,101094.48
2018-03-20T05:29:51.580Z,101108.36
2018-03-20T05:32:20.086Z,101110.38
2018-03-20T05:34:49.223Z,101096.20
2018-03-20T05:37:17.647Z,101089.94
2018-03-20T05:39:46.249Z,101093.36
2018-03-20T05:42:15.462Z,101099.37
2018-03-20T05:44:43.873Z,101096.90
2018-03-20T05:50:28.148Z,101106.09
2018-03-20T05:52:56.552Z,101102.05
2018-03-20T05:55:24.976Z,101110.48
2018-03-20T05:57:54.003Z,101108.49
2018-03-20T06:00:22.416Z,101109.44
2018-03-20T06:02:50.958Z,101112.91
2018-03-20T06:05:19.337Z,101116.81
2018-03-20T06:07:47.742Z,101124.02
2018-03-20T06:10:16.167Z,101120.69
2018-03-20T06:12:45.354Z,101115.72
2018-03-20T06:15:14.148Z,101108.70
2018-03-20T06:17:42.587Z,101116.59
2018-03-20T06:20:10.962Z,101111.55
2018-03-20T06:22:39.354Z,101119.97
2018-03-20T06:25:07.845Z,101121.34
2018-03-20T06:27:36.460Z,101128.00
2018-03-20T06:30:05.608Z,101135.73
2018-03-20T06:32:34.000Z,101137.64
2018-03-20T06:35:02.401Z,101134.03
2018-03-20T06:37:31.014Z,101137.91
2018-03-20T06:39:59.448Z,101143.38
2018-03-20T06:42:27.851Z,101154.46
2018-03-20T06:44:57.013Z,101158.20
2018-03-20T06:47:25.502Z,101166.77
2018-03-20T06:49:53.951Z,101165.57
2018-03-20T06:52:22.398Z,101162.50
2018-03-20T06:54:51.634Z,101167.03
2018-03-20T06:57:20.320Z,101176.29
2018-03-20T06:59:48.714Z,101182.70
2018-03-20T07:02:17.099Z,101174.73
2018-03-20T07:04:46.253Z,101184.25
2018-03-20T07:07:14.642Z,101183.83
2018-03-20T07:09:43.079Z,101185.55
2018-03-20T07:12:12.928Z,101187.81
2018-03-20T07:14:41.336Z,101187.24
2018-03-20T07:17:10.506Z,101195.33
2018-03-20T07:19:38.919Z,101191.30
2018-03-20T07:22:08.201Z,101192.91
2018-03-20T07:24:36.676Z,101190.61
2018-03-20T07:27:05.099Z,101190.30
2018-03-20T07:29:33.573Z,101186.61
2018-03-20T07:32:01.957Z,101195.16
2018-03-20T07:34:30.420Z,101191.69
2018-03-20T07:36:58.826Z,101193.75
2018-03-20T07:39:27.974Z,101198.69
2018-03-20T07:41:56.447Z,101201.81
2018-03-20T07:44:24.820Z,101193.09
2018-03-20T07:46:53.224Z,101184.59
2018-03-20T07:49:21.626Z,101200.23
2018-03-20T07:51:50.088Z,101193.14
2018-03-20T07:54:18.626Z,101195.53
2018-03-20T07:56:47.780Z,101200.89
2018-03-20T07:59:16.295Z,101201.96
2018-03-20T08:01:44.675Z,101207.13
2018-03-20T08:04:14.018Z,101207.89
2018-03-20T08:06:42.459Z,101206.25
2018-03-20T08:09:11.780Z,101201.52
2018-03-20T08:11:40.195Z,101207.58
2018-03-20T08:14:08.728Z,101213.73
2018-03-20T08:16:37.877Z,101218.59
2018-03-20T08:19:06.304Z,101208.81
2018-03-20T08:21:34.689Z,101223.41
2018-03-20T08:24:04.021Z,101221.01
2018-03-20T08:26:32.464Z,101225.35
2018-03-20T08:29:00.946Z,101225.06
2018-03-20T08:31:30.247Z,101232.80
2018-03-20T08:33:58.626Z,101236.78
2018-03-20T08:36:27.783Z,101243.20
2018-03-20T08:38:56.179Z,101247.55
2018-03-20T08:41:24.591Z,101254.04
2018-03-20T08:43:53.747Z,101261.34
2018-03-20T08:46:22.212Z,101265.64
2018-03-20T08:48:50.615Z,101271.70
2018-03-20T08:51:18.994Z,101270.81
2018-03-20T08:53:47.367Z,101277.91
2018-03-20T08:56:15.889Z,101289.91
2018-03-20T08:58:45.061Z,101281.30
2018-03-20T09:01:13.430Z,101283.32
2018-03-20T09:03:41.979Z,101285.75
2018-03-20T09:06:10.380Z,101286.16
2018-03-20T09:08:38.813Z,101286.98
2018-03-20T09:11:07.212Z,101281.14
2018-03-20T09:13:35.654Z,101286.77
2018-03-20T09:16:04.248Z,101276.86
2018-03-20T09:18:32.865Z,101278.86
2018-03-20T09:21:02.031Z,101284.36
2018-03-20T09:23:30.427Z,101290.32
2018-03-20T09:25:59.604Z,101291.16
2018-03-20T09:28:28.003Z,101290.59
2018-03-20T09:30:57.202Z,101299.51
2018-03-20T09:33:26.554Z,101298.84
2018-03-20T09:35:55.015Z,101305.92
2018-03-20T09:38:24.199Z,101300.49
2018-03-20T09:40:53.357Z,101295.67
2018-03-20T09:43:21.836Z,101296.28
2018-03-20T09:45:50.226Z,101297.41
2018-03-20T09:48:19.472Z,101304.05
2018-03-20T09:50:48.669Z,101297.89
2018-03-20T09:53:17.845Z,101299.70
2018-03-20T09:55:46.226Z,101300.86
2018-03-20T09:58:14.617Z,101306.80
2018-03-20T10:00:43.907Z,101307.00
2018-03-20T10:03:12.291Z,101302.49
2018-03-20T10:05:41.487Z,101320.88
2018-03-20T10:08:10.675Z,101319.56
2018-03-20T10:10:39.059Z,101317.42
2018-03-20T10:13:07.484Z,101324.13
2018-03-20T10:15:35.885Z,101318.66
2018-03-20T10:18:04.278Z,101326.91
2018-03-20T10:20:32.663Z,101330.75
2018-03-20T10:23:01.129Z,101335.88
2018-03-20T10:25:29.616Z,101337.61
2018-03-20T10:27:58.303Z,101342.91
2018-03-20T10:30:26.703Z,101349.27
2018-03-20T10:32:55.156Z,101342.55
2018-03-20T10:35:23.567Z,101351.02
2018-03-20T10:37:52.011Z,101344.47
2018-03-20T10:40:20.422Z,101344.36
2018-03-20T10:42:48.814Z,101349.26
2018-03-20T10:45:17.253Z,101357.98
2018-03-20T10:47:45.652Z,101351.78
2018-03-20T10:50:14.073Z,101359.45
2018-03-20T10:52:42.493Z,101349.06
2018-03-20T10:55:11.775Z,101358.80
2018-03-20T10:57:40.187Z,101357.73
2018-03-20T11:00:08.573Z,101358.09
2018-03-20T11:02:36.999Z,101358.45
2018-03-20T11:05:05.446Z,101361.41
2018-03-20T11:07:33.917Z,101364.27
2018-03-20T11:10:02.313Z,101358.32
2018-03-20T11:12:30.729Z,101356.30
2018-03-20T11:14:59.108Z,101358.10
2018-03-20T11:17:27.496Z,101372.98
2018-03-20T11:19:56.247Z,101361.98
2018-03-20T11:22:24.642Z,101369.95
2018-03-20T11:24:53.120Z,101370.67
2018-03-20T11:27:21.539Z,101361.27
2018-03-20T11:29:49.950Z,101374.38
2018-03-20T11:32:19.123Z,101379.55
2018-03-20T11:34:47.536Z,101371.06
2018-03-20T11:37:15.972Z,101376.71
2018-03-20T11:39:44.383Z,101374.66
2018-03-20T11:42:13.564Z,101373.05
2018-03-20T11:44:41.952Z,101372.16
2018-03-20T11:47:10.347Z,101372.59
2018-03-20T11:49:38.825Z,101373.39
2018-03-20T11:52:07.995Z,101377.97
2018-03-20T11:54:36.574Z,101369.58
2018-03-20T11:57:04.950Z,101370.44
2018-03-20T11:59:34.913Z,101382.77
2018-03-20T12:02:04.289Z,101376.63
2018-03-20T12:04:32.691Z,101382.30
2018-03-20T12:07:01.862Z,101378.90
2018-03-20T12:09:46.827Z,101381.95
2018-03-20T12:12:15.244Z,101375.05
2018-03-20T12:14:43.646Z,101390.55
2018-03-20T12:17:12.038Z,101382.47
2018-03-20T12:19:40.503Z,101396.11
2018-03-20T12:22:08.912Z,101394.98
2018-03-20T12:24:37.334Z,101389.33
2018-03-20T12:27:05.724Z,101393.84
2018-03-20T12:29:34.877Z,101402.30
2018-03-20T12:32:03.272Z,101386.22
2018-03-20T12:34:31.752Z,101389.52
2018-03-20T12:37:00.376Z,101395.22
2018-03-20T12:39:28.770Z,101396.28
2018-03-20T12:41:57.181Z,101408.84
2018-03-20T12:44:25.668Z,101412.45
2018-03-20T12:46:54.771Z,101407.97
2018-03-20T12:49:23.213Z,101397.19
2018-03-20T12:51:51.680Z,101394.62
2018-03-20T12:54:30.231Z,101390.30
2018-03-20T12:56:58.872Z,101389.43
2018-03-20T12:59:27.256Z,101416.63
2018-03-20T13:01:56.438Z,101406.72
2018-03-20T13:04:24.866Z,101409.42
2018-03-20T13:06:53.278Z,101406.91
2018-03-20T13:09:21.690Z,101412.84
2018-03-20T13:11:50.937Z,101408.38
2018-03-20T13:14:19.348Z,101411.37
2018-03-20T13:16:47.955Z,101420.42
2018-03-20T13:19:16.384Z,101412.02
2018-03-20T13:21:45.525Z,101414.02
2018-03-20T13:24:14.075Z,101411.25
2018-03-20T13:26:42.644Z,101406.69
2018-03-20T13:29:11.087Z,101421.83
2018-03-20T13:31:39.496Z,101414.66
2018-03-20T13:34:08.651Z,101424.50
2018-03-20T13:36:37.091Z,101435.43
2018-03-20T13:39:05.473Z,101432.34
2018-03-20T13:41:33.903Z,101431.95
2018-03-20T13:44:02.315Z,101431.61
2018-03-20T13:46:30.745Z,101436.56
2018-03-20T13:48:59.123Z,101435.02
2018-03-20T13:51:27.782Z,101446.52
2018-03-20T13:53:56.877Z,101437.25
2018-03-20T13:56:25.825Z,101458.84
2018-03-20T13:58:54.452Z,101439.25
2018-03-20T14:01:23.024Z,101445.40
2018-03-20T14:03:51.518Z,101435.91
2018-03-20T14:06:19.925Z,101455.70
2018-03-20T14:08:49.141Z,101448.14
2018-03-20T14:11:17.762Z,101439.63
2018-03-20T14:13:46.287Z,101443.47
2018-03-20T14:16:14.943Z,101442.67
2018-03-20T14:18:43.354Z,101445.78
2018-03-20T14:21:11.769Z,101459.47
2018-03-20T14:23:40.196Z,101462.48
2018-03-20T14:26:09.452Z,101466.75
2018-03-20T14:28:37.881Z,101470.27
2018-03-20T14:31:07.055Z,101471.08
2018-03-20T14:33:35.500Z,101477.39
2018-03-20T14:36:04.006Z,101472.92
2018-03-20T14:38:32.495Z,101484.84
2018-03-20T14:41:01.218Z,101479.11
2018-03-20T14:43:30.521Z,101485.09
2018-03-20T14:45:59.127Z,101488.02
2018-03-20T14:48:27.609Z,101499.31
2018-03-20T14:50:56.042Z,101492.09
2018-03-20T14:53:24.483Z,101495.34
2018-03-20T14:55:52.903Z,101494.39
2018-03-20T14:58:21.314Z,101501.48
2018-03-20T15:00:49.757Z,101510.29
2018-03-20T15:03:18.331Z,101506.22
2018-03-20T15:05:46.756Z,101508.27
2018-03-20T15:08:15.948Z,101513.66
2018-03-20T15:10:44.730Z,101524.61
2018-03-20T15:13:14.080Z,101534.35
2018-03-20T15:15:42.516Z,101540.77
2018-03-20T15:18:11.878Z,101532.61
2018-03-20T15:20:40.364Z,101536.27
2018-03-20T15:23:08.880Z,101541.97
2018-03-20T15:25:37.315Z,101542.44
2018-03-20T15:28:05.750Z,101554.97
2018-03-20T15:30:34.909Z,101548.77
2018-03-20T15:33:03.305Z,101555.08
2018-03-20T15:35:31.864Z,101564.64
2018-03-20T15:38:00.264Z,101557.67
2018-03-20T15:40:28.826Z,101558.00
2018-03-20T15:42:57.268Z,101561.56
2018-03-20T15:45:26.491Z,101563.45
2018-03-20T15:47:55.024Z,101567.23
2018-03-20T15:50:23.543Z,101566.81
2018-03-20T15:52:52.089Z,101568.73
2018-03-20T15:55:21.272Z,101575.17
2018-03-20T15:57:49.717Z,101571.84
2018-03-20T16:00:18.118Z,101576.48
2018-03-20T16:02:46.613Z,101587.10
2018-03-20T16:05:15.030Z,101591.39
2018-03-20T16:07:44.311Z,101596.48
2018-03-20T16:10:12.809Z,101600.37
2018-03-20T16:12:41.286Z,101603.59
2018-03-20T16:15:09.742Z,101613.43
2018-03-20T16:17:38.429Z,101620.45
2018-03-20T16:20:07.748Z,101629.64
2018-03-20T16:22:36.198Z,101625.48
2018-03-20T16:25:04.660Z,101638.07
2018-03-20T16:27:33.082Z,101632.12
2018-03-20T16:30:01.831Z,101643.30
2018-03-20T16:32:30.333Z,101647.16
2018-03-20T16:34:58.764Z,101651.81
2018-03-20T16:37:27.186Z,101651.41
2018-03-20T16:39:55.643Z,101646.05
2018-03-20T16:42:24.948Z,101655.93
2018-03-20T16:44:54.195Z,101662.11
2018-03-20T16:47:23.505Z,101664.47
2018-03-20T16:49:51.923Z,101674.36
2018-03-20T16:52:21.173Z,101680.37
2018-03-20T16:54:49.610Z,101681.16
2018-03-20T16:57:18.028Z,101698.86
2018-03-20T16:59:46.425Z,101698.73
2018-03-20T17:02:14.937Z,101700.16
2018-03-20T17:04:43.329Z,101706.80
2018-03-20T17:07:11.808Z,101713.23
2018-03-20T17:09:40.212Z,101703.83
2018-03-20T17:12:08.674Z,101710.36
2018-03-20T17:14:38.470Z,101717.45
2018-03-20T17:17:06.942Z,101713.95
2018-03-20T17:19:35.359Z,101720.93
2018-03-20T17:22:03.778Z,101724.18
2018-03-20T17:24:34.536Z,101729.94
2018-03-20T17:27:02.981Z,101737.00
2018-03-20T17:29:31.378Z,101734.48
2018-03-20T17:32:00.650Z,101741.25
2018-03-20T17:34:29.059Z,101747.58
2018-03-20T17:36:57.481Z,101747.48
2018-03-20T17:39:26.103Z,101748.02
2018-03-20T17:41:55.428Z,101754.36
2018-03-20T17:44:23.844Z,101760.23
2018-03-20T17:46:54.208Z,101759.11
2018-03-20T17:49:22.778Z,101758.55
2018-03-20T17:51:51.188Z,101770.66
2018-03-20T17:54:19.694Z,101774.45
2018-03-20T17:56:48.151Z,101781.38
2018-03-20T17:59:16.648Z,101782.78
2018-03-20T18:01:45.050Z,101794.53
2018-03-20T18:04:14.201Z,101797.72
2018-03-20T18:06:42.612Z,101807.61
2018-03-20T18:09:11.192Z,101812.52
2018-03-20T18:11:39.632Z,101813.55
2018-03-20T18:14:08.050Z,101818.56
2018-03-20T18:16:36.472Z,101818.70
2018-03-20T18:19:04.881Z,101818.66
2018-03-20T18:21:34.077Z,101826.63
2018-03-20T18:24:02.497Z,101831.12
2018-03-20T18:26:31.152Z,101832.70
2018-03-20T18:29:00.363Z,101836.41
2018-03-20T18:31:28.797Z,101846.44
2018-03-20T18:33:57.966Z,101849.83
2018-03-20T18:36:26.465Z,101847.92
2018-03-20T18:38:54.873Z,101859.17
2018-03-20T18:41:23.339Z,101864.27
2018-03-20T18:43:52.492Z,101864.63
2018-03-20T18:46:20.965Z,101870.69
2018-03-20T18:48:49.429Z,101882.62
2018-03-20T18:51:17.872Z,101881.08
2018-03-20T18:53:46.412Z,101881.58
2018-03-20T18:56:14.882Z,101892.36
2018-03-20T18:58:43.326Z,101886.30
2018-03-20T19:01:12.659Z,101890.81
2018-03-20T19:03:41.151Z,101892.03
2018-03-20T19:06:09.678Z,101903.31
2018-03-20T19:08:38.135Z,101904.80
2018-03-20T19:11:06.521Z,101910.28
2018-03-20T19:13:34.956Z,101909.91
2018-03-20T19:16:04.101Z,101917.77
2018-03-20T19:18:32.468Z,101928.64
2018-03-20T19:21:00.917Z,101930.72
2018-03-20T19:23:30.416Z,101934.33
2018-03-20T19:25:59.588Z,101940.38
2018-03-20T19:28:28.011Z,101945.61
2018-03-20T19:30:56.467Z,101953.31
2018-03-20T19:33:25.000Z,101953.91
2018-03-20T19:35:53.451Z,101964.81
2018-03-20T19:38:22.640Z,101958.09
2018-03-20T19:40:51.072Z,101973.36
2018-03-20T19:43:19.523Z,101973.66
2018-03-20T19:45:47.931Z,101983.25
2018-03-20T19:48:16.330Z,101984.75
2018-03-20T19:50:44.737Z,101988.09
2018-03-20T19:53:13.189Z,101995.09
2018-03-20T19:55:41.641Z,101995.91
2018-03-20T19:58:10.235Z,101999.91
2018-03-20T20:00:38.616Z,102004.97
2018-03-20T20:03:07.000Z,102010.99
2018-03-20T20:05:35.637Z,102017.94
2018-03-20T20:08:04.135Z,102020.11
2018-03-20T20:10:33.305Z,102020.95
2018-03-20T20:13:01.761Z,102030.97
2018-03-20T20:15:30.343Z,102029.56
2018-03-20T20:17:59.092Z,102032.93
2018-03-20T20:20:28.481Z,102032.94
2018-03-20T20:22:56.968Z,102031.73
2018-03-20T20:25:26.802Z,102037.96
2018-03-20T20:27:55.228Z,102044.77
2018-03-20T20:30:23.801Z,102050.66
2018-03-20T20:32:52.319Z,102054.55
2018-03-20T20:35:20.753Z,102057.05
2018-03-20T20:37:49.145Z,102062.98
2018-03-20T20:40:17.619Z,102063.78
2018-03-20T20:42:46.048Z,102069.03
2018-03-20T20:45:14.467Z,102063.18
2018-03-20T20:47:42.946Z,102073.41
2018-03-20T20:50:11.350Z,102081.33
2018-03-20T20:52:40.765Z,102074.33
2018-03-20T20:55:09.149Z,102082.21
2018-03-20T20:57:38.798Z,102083.84
2018-03-20T21:00:07.174Z,102087.61
2018-03-20T21:02:35.678Z,102093.52
2018-03-20T21:05:04.849Z,102099.56
2018-03-20T21:07:37.448Z,102097.63
2018-03-20T21:10:06.031Z,102099.67
2018-03-20T21:12:35.997Z,102106.80
2018-03-20T21:15:04.546Z,102105.64
2018-03-20T21:17:33.879Z,102111.77
2018-03-20T21:20:02.577Z,102109.09
2018-03-20T21:22:31.797Z,102111.09
2018-03-20T21:25:00.379Z,102116.44
2018-03-20T21:27:28.954Z,102119.65
2018-03-20T21:29:57.400Z,102114.03
2018-03-20T21:32:26.031Z,102114.97
2018-03-20T21:34:54.712Z,102125.82
2018-03-20T21:37:23.169Z,102110.27
2018-03-20T21:39:51.574Z,102117.91
2018-03-20T21:42:20.524Z,102116.37
2018-03-20T21:44:48.972Z,102117.28
2018-03-20T21:47:17.368Z,102122.36
2018-03-20T21:49:46.580Z,102123.64
2018-03-20T21:52:15.736Z,102131.30
2018-03-20T21:54:44.155Z,102131.73
2018-03-20T21:57:13.318Z,102140.22
2018-03-20T21:59:41.731Z,102137.01
2018-03-20T22:02:10.893Z,102145.28
2018-03-20T22:04:39.342Z,102146.17
2018-03-20T22:07:07.950Z,102147.60
2018-03-20T22:09:36.468Z,102150.40
2018-03-20T22:12:04.857Z,102147.98
2018-03-20T22:14:34.148Z,102158.63
2018-03-20T22:17:03.361Z,102162.53
2018-03-20T22:19:32.542Z,102157.98
2018-03-20T22:22:00.925Z,102159.69
2018-03-20T22:24:29.356Z,102162.55
2018-03-20T22:26:57.763Z,102161.46
2018-03-20T22:29:26.213Z,102166.17
2018-03-20T22:31:54.658Z,102173.44
2018-03-20T22:34:24.086Z,102168.50
2018-03-20T22:36:52.478Z,102168.73
2018-03-20T22:39:21.127Z,102165.14
2018-03-20T22:41:50.305Z,102174.02
2018-03-20T22:44:18.716Z,102166.00
2018-03-20T22:46:47.859Z,102169.89
2018-03-20T22:49:16.243Z,102172.70
2018-03-20T22:51:44.637Z,102175.22
2018-03-20T22:54:13.046Z,102179.22
2018-03-20T22:56:42.405Z,102185.92
2018-03-20T22:59:10.878Z,102187.72
2018-03-20T23:01:39.270Z,102184.20
2018-03-20T23:04:07.648Z,102192.13
2018-03-20T23:06:36.062Z,102186.30
2018-03-20T23:09:04.453Z,102184.77
2018-03-20T23:11:33.628Z,102190.09
2018-03-20T23:14:02.114Z,102192.06
2018-03-20T23:16:30.605Z,102191.46
2018-03-20T23:18:58.995Z,102193.58
2018-03-20T23:21:27.407Z,102191.55
2018-03-20T23:23:55.816Z,102196.52
2018-03-20T23:26:24.238Z,102194.89
2018-03-20T23:28:52.784Z,102195.34
2018-03-20T23:31:21.481Z,102201.62
2018-03-20T23:33:50.678Z,102202.27
2018-03-20T23:36:19.225Z,102201.50
2018-03-20T23:38:48.934Z,102208.91
2018-03-20T23:41:18.354Z,102211.95
2018-03-20T23:43:47.110Z,102210.95
2018-03-20T23:46:15.512Z,102205.77
2018-03-20T23:48:44.692Z,102206.99
2018-03-20T23:51:14.051Z,102210.81
2018-03-20T23:53:42.439Z,102211.83
2018-03-20T23:56:10.863Z,102215.60
2018-03-20T23:58:40.098Z,102214.89
